sensor_id;sensor_type;location;lat;lon;timestamp;P1;durP1;ratioP1;P2;durP2;ratioP2
16504;SDS011;8365;51.030;4.696;2022-10-26T00:01:53;8.57;;;4.87;;
16504;SDS011;8365;51.030;4.696;2022-10-26T00:04:23;8.57;;;5.37;;
16504;SDS011;8365;51.030;4.696;2022-10-26T00:06:54;8.73;;;5.30;;
16504;SDS011;8365;51.030;4.696;2022-10-26T00:09:24;7.30;;;4.40;;
16504;SDS011;8365;51.030;4.696;2022-10-26T00:11:58;6.03;;;4.90;;
16504;SDS011;8365;51.030;4.696;2022-10-26T00:14:28;8.00;;;4.77;;
16504;SDS011;8365;51.030;4.696;2022-10-26T00:16:59;8.50;;;5.10;;
16504;SDS011;8365;51.030;4.696;2022-10-26T00:19:31;10.00;;;5.30;;
16504;SDS011;8365;51.030;4.696;2022-10-26T00:22:03;7.50;;;4.67;;
16504;SDS011;8365;51.030;4.696;2022-10-26T00:24:33;9.43;;;4.87;;
16504;SDS011;8365;51.030;4.696;2022-10-26T00:27:03;7.67;;;4.73;;
16504;SDS011;8365;51.030;4.696;2022-10-26T00:29:34;8.90;;;4.73;;
16504;SDS011;8365;51.030;4.696;2022-10-26T00:32:04;12.40;;;4.63;;
16504;SDS011;8365;51.030;4.696;2022-10-26T00:34:35;7.67;;;4.70;;
16504;SDS011;8365;51.030;4.696;2022-10-26T00:37:06;6.97;;;4.23;;
16504;SDS011;8365;51.030;4.696;2022-10-26T00:39:38;6.77;;;4.43;;
16504;SDS011;8365;51.030;4.696;2022-10-26T00:42:14;8.40;;;4.60;;
16504;SDS011;8365;51.030;4.696;2022-10-26T00:47:39;6.20;;;4.70;;
16504;SDS011;8365;51.030;4.696;2022-10-26T00:50:25;6.07;;;4.10;;
16504;SDS011;8365;51.030;4.696;2022-10-26T00:53:02;6.90;;;4.40;;
16504;SDS011;8365;51.030;4.696;2022-10-26T00:55:36;5.63;;;4.03;;
16504;SDS011;8365;51.030;4.696;2022-10-26T00:58:11;6.40;;;4.10;;
16504;SDS011;8365;51.030;4.696;2022-10-26T01:00:41;6.93;;;3.80;;
16504;SDS011;8365;51.030;4.696;2022-10-26T01:03:12;7.17;;;4.20;;
16504;SDS011;8365;51.030;4.696;2022-10-26T01:05:44;6.90;;;3.80;;
16504;SDS011;8365;51.030;4.696;2022-10-26T01:08:16;5.67;;;3.70;;
16504;SDS011;8365;51.030;4.696;2022-10-26T01:10:47;7.27;;;4.20;;
16504;SDS011;8365;51.030;4.696;2022-10-26T01:13:17;5.00;;;3.90;;
16504;SDS011;8365;51.030;4.696;2022-10-26T01:18:58;7.00;;;3.83;;
16504;SDS011;8365;51.030;4.696;2022-10-26T01:24:57;8.63;;;4.13;;
16504;SDS011;8365;51.030;4.696;2022-10-26T01:27:34;8.03;;;3.53;;
16504;SDS011;8365;51.030;4.696;2022-10-26T01:35:48;8.33;;;3.73;;
16504;SDS011;8365;51.030;4.696;2022-10-26T01:41:27;7.63;;;3.80;;
16504;SDS011;8365;51.030;4.696;2022-10-26T01:44:19;6.23;;;3.10;;
16504;SDS011;8365;51.030;4.696;2022-10-26T01:46:54;4.97;;;3.50;;
16504;SDS011;8365;51.030;4.696;2022-10-26T01:49:28;5.27;;;3.17;;
16504;SDS011;8365;51.030;4.696;2022-10-26T01:52:03;8.13;;;3.60;;
16504;SDS011;8365;51.030;4.696;2022-10-26T01:54:35;12.43;;;4.10;;
16504;SDS011;8365;51.030;4.696;2022-10-26T01:57:06;4.13;;;3.33;;
16504;SDS011;8365;51.030;4.696;2022-10-26T02:11:42;4.63;;;3.13;;
16504;SDS011;8365;51.030;4.696;2022-10-26T02:14:22;5.93;;;3.90;;
16504;SDS011;8365;51.030;4.696;2022-10-26T02:16:57;6.97;;;3.70;;
16504;SDS011;8365;51.030;4.696;2022-10-26T02:19:53;7.53;;;3.30;;
16504;SDS011;8365;51.030;4.696;2022-10-26T02:22:38;7.27;;;3.53;;
16504;SDS011;8365;51.030;4.696;2022-10-26T02:25:15;7.30;;;3.90;;
16504;SDS011;8365;51.030;4.696;2022-10-26T02:27:50;6.70;;;3.60;;
16504;SDS011;8365;51.030;4.696;2022-10-26T02:30:28;5.87;;;4.07;;
16504;SDS011;8365;51.030;4.696;2022-10-26T02:33:02;6.23;;;4.20;;
16504;SDS011;8365;51.030;4.696;2022-10-26T02:35:35;7.83;;;4.13;;
16504;SDS011;8365;51.030;4.696;2022-10-26T02:38:10;6.07;;;3.60;;
16504;SDS011;8365;51.030;4.696;2022-10-26T02:40:42;5.00;;;3.60;;
16504;SDS011;8365;51.030;4.696;2022-10-26T02:43:16;8.17;;;3.70;;
16504;SDS011;8365;51.030;4.696;2022-10-26T02:45:52;6.90;;;3.70;;
16504;SDS011;8365;51.030;4.696;2022-10-26T02:48:26;5.77;;;3.40;;
16504;SDS011;8365;51.030;4.696;2022-10-26T02:51:06;5.67;;;3.37;;
16504;SDS011;8365;51.030;4.696;2022-10-26T02:56:39;6.53;;;3.50;;
16504;SDS011;8365;51.030;4.696;2022-10-26T02:59:15;8.07;;;4.23;;
16504;SDS011;8365;51.030;4.696;2022-10-26T03:01:49;6.27;;;3.40;;
16504;SDS011;8365;51.030;4.696;2022-10-26T03:04:26;4.70;;;3.63;;
16504;SDS011;8365;51.030;4.696;2022-10-26T03:07:01;7.33;;;3.10;;
16504;SDS011;8365;51.030;4.696;2022-10-26T03:09:31;5.93;;;3.60;;
16504;SDS011;8365;51.030;4.696;2022-10-26T03:12:02;8.93;;;3.87;;
16504;SDS011;8365;51.030;4.696;2022-10-26T03:14:32;10.77;;;3.97;;
16504;SDS011;8365;51.030;4.696;2022-10-26T03:17:05;7.83;;;3.47;;
16504;SDS011;8365;51.030;4.696;2022-10-26T03:19:38;6.73;;;3.80;;
16504;SDS011;8365;51.030;4.696;2022-10-26T03:22:11;6.33;;;3.40;;
16504;SDS011;8365;51.030;4.696;2022-10-26T03:24:41;8.03;;;3.67;;
16504;SDS011;8365;51.030;4.696;2022-10-26T03:27:12;6.57;;;3.30;;
16504;SDS011;8365;51.030;4.696;2022-10-26T03:29:43;5.43;;;3.47;;
16504;SDS011;8365;51.030;4.696;2022-10-26T03:32:14;6.47;;;3.23;;
16504;SDS011;8365;51.030;4.696;2022-10-26T03:34:44;7.67;;;3.80;;
16504;SDS011;8365;51.030;4.696;2022-10-26T03:37:15;5.67;;;3.63;;
16504;SDS011;8365;51.030;4.696;2022-10-26T03:39:45;7.63;;;3.73;;
16504;SDS011;8365;51.030;4.696;2022-10-26T03:42:18;7.30;;;3.50;;
16504;SDS011;8365;51.030;4.696;2022-10-26T03:44:48;5.77;;;3.80;;
16504;SDS011;8365;51.030;4.696;2022-10-26T03:47:18;8.57;;;4.00;;
16504;SDS011;8365;51.030;4.696;2022-10-26T03:49:49;5.87;;;3.90;;
16504;SDS011;8365;51.030;4.696;2022-10-26T03:52:19;6.07;;;3.47;;
16504;SDS011;8365;51.030;4.696;2022-10-26T03:54:51;5.63;;;3.40;;
16504;SDS011;8365;51.030;4.696;2022-10-26T03:57:21;7.20;;;4.10;;
16504;SDS011;8365;51.030;4.696;2022-10-26T03:59:52;7.13;;;3.90;;
16504;SDS011;8365;51.030;4.696;2022-10-26T04:02:22;6.60;;;3.20;;
16504;SDS011;8365;51.030;4.696;2022-10-26T04:04:53;8.47;;;3.67;;
16504;SDS011;8365;51.030;4.696;2022-10-26T04:07:23;9.00;;;3.57;;
16504;SDS011;8365;51.030;4.696;2022-10-26T04:09:53;9.43;;;3.30;;
16504;SDS011;8365;51.030;4.696;2022-10-26T04:12:24;4.90;;;3.00;;
16504;SDS011;8365;51.030;4.696;2022-10-26T04:14:54;8.47;;;3.90;;
16504;SDS011;8365;51.030;4.696;2022-10-26T04:17:27;7.30;;;3.47;;
16504;SDS011;8365;51.030;4.696;2022-10-26T04:19:57;7.07;;;3.30;;
16504;SDS011;8365;51.030;4.696;2022-10-26T04:22:27;4.97;;;3.10;;
16504;SDS011;8365;51.030;4.696;2022-10-26T04:24:58;7.60;;;3.93;;
16504;SDS011;8365;51.030;4.696;2022-10-26T04:27:28;9.07;;;3.53;;
16504;SDS011;8365;51.030;4.696;2022-10-26T04:30:01;4.70;;;3.50;;
16504;SDS011;8365;51.030;4.696;2022-10-26T04:32:32;4.57;;;3.47;;
16504;SDS011;8365;51.030;4.696;2022-10-26T04:35:02;5.87;;;3.53;;
16504;SDS011;8365;51.030;4.696;2022-10-26T04:37:33;6.90;;;3.40;;
16504;SDS011;8365;51.030;4.696;2022-10-26T04:40:03;4.73;;;3.50;;
16504;SDS011;8365;51.030;4.696;2022-10-26T04:42:44;5.73;;;3.53;;
16504;SDS011;8365;51.030;4.696;2022-10-26T04:45:15;5.10;;;3.30;;
16504;SDS011;8365;51.030;4.696;2022-10-26T04:47:46;6.67;;;3.70;;
16504;SDS011;8365;51.030;4.696;2022-10-26T04:50:16;9.47;;;3.60;;
16504;SDS011;8365;51.030;4.696;2022-10-26T04:52:49;3.80;;;3.20;;
16504;SDS011;8365;51.030;4.696;2022-10-26T04:55:20;5.13;;;3.40;;
16504;SDS011;8365;51.030;4.696;2022-10-26T04:57:50;4.10;;;3.47;;
16504;SDS011;8365;51.030;4.696;2022-10-26T05:00:21;5.40;;;3.23;;
16504;SDS011;8365;51.030;4.696;2022-10-26T05:02:51;6.37;;;3.13;;
16504;SDS011;8365;51.030;4.696;2022-10-26T05:05:27;4.03;;;3.30;;
16504;SDS011;8365;51.030;4.696;2022-10-26T05:08:00;3.77;;;2.77;;
16504;SDS011;8365;51.030;4.696;2022-10-26T05:10:30;4.27;;;2.90;;
16504;SDS011;8365;51.030;4.696;2022-10-26T05:13:01;4.00;;;2.93;;
16504;SDS011;8365;51.030;4.696;2022-10-26T05:15:31;4.47;;;2.43;;
16504;SDS011;8365;51.030;4.696;2022-10-26T05:18:03;3.47;;;2.10;;
16504;SDS011;8365;51.030;4.696;2022-10-26T05:20:34;6.33;;;2.70;;
16504;SDS011;8365;51.030;4.696;2022-10-26T05:23:06;4.63;;;2.43;;
16504;SDS011;8365;51.030;4.696;2022-10-26T05:25:40;5.13;;;2.43;;
16504;SDS011;8365;51.030;4.696;2022-10-26T05:28:11;3.60;;;2.37;;
16504;SDS011;8365;51.030;4.696;2022-10-26T05:30:43;3.50;;;1.80;;
16504;SDS011;8365;51.030;4.696;2022-10-26T05:33:15;2.87;;;2.47;;
16504;SDS011;8365;51.030;4.696;2022-10-26T05:35:47;4.27;;;2.40;;
16504;SDS011;8365;51.030;4.696;2022-10-26T05:38:18;3.33;;;2.20;;
16504;SDS011;8365;51.030;4.696;2022-10-26T05:40:51;3.73;;;2.33;;
16504;SDS011;8365;51.030;4.696;2022-10-26T05:43:22;3.13;;;2.53;;
16504;SDS011;8365;51.030;4.696;2022-10-26T05:45:53;3.40;;;2.40;;
16504;SDS011;8365;51.030;4.696;2022-10-26T05:48:26;7.60;;;2.97;;
16504;SDS011;8365;51.030;4.696;2022-10-26T05:50:59;6.73;;;2.47;;
16504;SDS011;8365;51.030;4.696;2022-10-26T05:53:30;9.93;;;9.07;;
16504;SDS011;8365;51.030;4.696;2022-10-26T05:56:01;4.73;;;2.13;;
16504;SDS011;8365;51.030;4.696;2022-10-26T05:58:32;5.07;;;3.03;;
16504;SDS011;8365;51.030;4.696;2022-10-26T06:03:51;8.47;;;7.60;;
16504;SDS011;8365;51.030;4.696;2022-10-26T06:06:43;6.00;;;3.40;;
16504;SDS011;8365;51.030;4.696;2022-10-26T06:09:15;5.93;;;2.50;;
16504;SDS011;8365;51.030;4.696;2022-10-26T06:11:45;4.53;;;2.87;;
16504;SDS011;8365;51.030;4.696;2022-10-26T06:14:16;5.77;;;5.00;;
16504;SDS011;8365;51.030;4.696;2022-10-26T06:16:57;4.73;;;4.30;;
16504;SDS011;8365;51.030;4.696;2022-10-26T06:31:04;3.77;;;2.83;;
16504;SDS011;8365;51.030;4.696;2022-10-26T06:33:35;4.57;;;3.20;;
16504;SDS011;8365;51.030;4.696;2022-10-26T06:36:22;4.70;;;2.60;;
16504;SDS011;8365;51.030;4.696;2022-10-26T06:38:58;7.57;;;4.53;;
16504;SDS011;8365;51.030;4.696;2022-10-26T06:41:33;5.87;;;3.77;;
16504;SDS011;8365;51.030;4.696;2022-10-26T06:44:05;5.90;;;2.40;;
16504;SDS011;8365;51.030;4.696;2022-10-26T06:54:47;4.80;;;4.27;;
16504;SDS011;8365;51.030;4.696;2022-10-26T06:57:27;3.83;;;2.60;;
16504;SDS011;8365;51.030;4.696;2022-10-26T07:00:05;6.30;;;2.63;;
16504;SDS011;8365;51.030;4.696;2022-10-26T07:02:37;4.93;;;2.60;;
16504;SDS011;8365;51.030;4.696;2022-10-26T07:05:07;7.43;;;3.53;;
16504;SDS011;8365;51.030;4.696;2022-10-26T07:07:42;4.27;;;2.70;;
16504;SDS011;8365;51.030;4.696;2022-10-26T07:10:14;5.03;;;2.80;;
16504;SDS011;8365;51.030;4.696;2022-10-26T07:12:45;4.40;;;2.60;;
16504;SDS011;8365;51.030;4.696;2022-10-26T07:15:15;4.73;;;2.77;;
16504;SDS011;8365;51.030;4.696;2022-10-26T07:17:47;5.17;;;2.60;;
16504;SDS011;8365;51.030;4.696;2022-10-26T07:20:19;4.03;;;2.83;;
16504;SDS011;8365;51.030;4.696;2022-10-26T07:22:53;6.33;;;2.70;;
16504;SDS011;8365;51.030;4.696;2022-10-26T07:25:25;3.87;;;2.60;;
16504;SDS011;8365;51.030;4.696;2022-10-26T07:27:56;8.67;;;3.07;;
16504;SDS011;8365;51.030;4.696;2022-10-26T07:30:28;7.33;;;2.70;;
16504;SDS011;8365;51.030;4.696;2022-10-26T07:33:03;3.67;;;2.73;;
16504;SDS011;8365;51.030;4.696;2022-10-26T07:35:38;5.63;;;2.73;;
16504;SDS011;8365;51.030;4.696;2022-10-26T07:38:10;6.33;;;2.67;;
16504;SDS011;8365;51.030;4.696;2022-10-26T07:40:42;8.33;;;3.10;;
16504;SDS011;8365;51.030;4.696;2022-10-26T07:43:13;5.63;;;2.97;;
16504;SDS011;8365;51.030;4.696;2022-10-26T07:45:47;4.33;;;3.17;;
16504;SDS011;8365;51.030;4.696;2022-10-26T07:48:19;6.13;;;2.90;;
16504;SDS011;8365;51.030;4.696;2022-10-26T07:50:50;5.27;;;2.93;;
16504;SDS011;8365;51.030;4.696;2022-10-26T07:53:20;2.97;;;2.70;;
16504;SDS011;8365;51.030;4.696;2022-10-26T07:55:51;3.63;;;2.63;;
16504;SDS011;8365;51.030;4.696;2022-10-26T07:58:23;7.97;;;3.10;;
16504;SDS011;8365;51.030;4.696;2022-10-26T08:00:57;6.77;;;3.10;;
16504;SDS011;8365;51.030;4.696;2022-10-26T08:03:35;5.70;;;2.87;;
16504;SDS011;8365;51.030;4.696;2022-10-26T08:06:06;5.13;;;3.07;;
16504;SDS011;8365;51.030;4.696;2022-10-26T08:08:38;6.63;;;3.20;;
16504;SDS011;8365;51.030;4.696;2022-10-26T08:11:08;6.97;;;3.07;;
16504;SDS011;8365;51.030;4.696;2022-10-26T08:13:39;4.00;;;3.27;;
16504;SDS011;8365;51.030;4.696;2022-10-26T08:16:09;4.00;;;3.03;;
16504;SDS011;8365;51.030;4.696;2022-10-26T08:18:40;6.50;;;2.90;;
16504;SDS011;8365;51.030;4.696;2022-10-26T08:21:11;4.10;;;3.10;;
16504;SDS011;8365;51.030;4.696;2022-10-26T08:23:42;4.20;;;3.13;;
16504;SDS011;8365;51.030;4.696;2022-10-26T08:26:12;3.47;;;2.93;;
16504;SDS011;8365;51.030;4.696;2022-10-26T08:28:43;6.77;;;2.70;;
16504;SDS011;8365;51.030;4.696;2022-10-26T08:31:17;4.70;;;2.80;;
16504;SDS011;8365;51.030;4.696;2022-10-26T08:33:47;5.60;;;3.07;;
16504;SDS011;8365;51.030;4.696;2022-10-26T08:36:19;7.70;;;3.53;;
16504;SDS011;8365;51.030;4.696;2022-10-26T08:38:53;5.90;;;3.40;;
16504;SDS011;8365;51.030;4.696;2022-10-26T08:41:29;4.60;;;3.27;;
16504;SDS011;8365;51.030;4.696;2022-10-26T08:46:52;6.03;;;3.23;;
16504;SDS011;8365;51.030;4.696;2022-10-26T08:52:08;7.97;;;3.27;;
16504;SDS011;8365;51.030;4.696;2022-10-26T08:54:45;6.50;;;2.60;;
16504;SDS011;8365;51.030;4.696;2022-10-26T08:57:27;4.70;;;2.97;;
16504;SDS011;8365;51.030;4.696;2022-10-26T09:00:11;3.77;;;2.90;;
16504;SDS011;8365;51.030;4.696;2022-10-26T09:02:48;5.40;;;2.80;;
16504;SDS011;8365;51.030;4.696;2022-10-26T09:05:31;7.03;;;3.37;;
16504;SDS011;8365;51.030;4.696;2022-10-26T09:08:15;4.67;;;2.60;;
16504;SDS011;8365;51.030;4.696;2022-10-26T09:11:02;7.47;;;2.90;;
16504;SDS011;8365;51.030;4.696;2022-10-26T09:16:36;3.92;;;2.65;;
16504;SDS011;8365;51.030;4.696;2022-10-26T09:24:30;5.97;;;2.60;;
16504;SDS011;8365;51.030;4.696;2022-10-26T09:29:48;5.23;;;2.70;;
16504;SDS011;8365;51.030;4.696;2022-10-26T09:32:25;5.93;;;2.28;;
16504;SDS011;8365;51.030;4.696;2022-10-26T09:35:15;6.78;;;2.55;;
16504;SDS011;8365;51.030;4.696;2022-10-26T09:37:57;3.60;;;2.60;;
16504;SDS011;8365;51.030;4.696;2022-10-26T09:43:17;4.53;;;2.60;;
16504;SDS011;8365;51.030;4.696;2022-10-26T09:45:53;5.13;;;2.60;;
16504;SDS011;8365;51.030;4.696;2022-10-26T09:48:32;2.35;;;2.10;;
16504;SDS011;8365;51.030;4.696;2022-10-26T09:51:09;4.65;;;2.45;;
16504;SDS011;8365;51.030;4.696;2022-10-26T09:53:40;4.68;;;2.42;;
16504;SDS011;8365;51.030;4.696;2022-10-26T09:56:11;5.75;;;2.53;;
16504;SDS011;8365;51.030;4.696;2022-10-26T09:58:43;5.63;;;2.55;;
16504;SDS011;8365;51.030;4.696;2022-10-26T10:01:28;5.05;;;2.85;;
16504;SDS011;8365;51.030;4.696;2022-10-26T10:06:43;7.15;;;2.58;;
16504;SDS011;8365;51.030;4.696;2022-10-26T10:09:18;4.43;;;2.30;;
16504;SDS011;8365;51.030;4.696;2022-10-26T10:14:25;5.50;;;2.33;;
16504;SDS011;8365;51.030;4.696;2022-10-26T10:17:00;3.58;;;2.33;;
16504;SDS011;8365;51.030;4.696;2022-10-26T10:19:33;3.20;;;2.20;;
16504;SDS011;8365;51.030;4.696;2022-10-26T10:24:55;4.35;;;2.10;;
16504;SDS011;8365;51.030;4.696;2022-10-26T10:27:29;4.63;;;2.28;;
16504;SDS011;8365;51.030;4.696;2022-10-26T10:30:21;3.50;;;2.30;;
16504;SDS011;8365;51.030;4.696;2022-10-26T10:33:02;4.07;;;2.25;;
16504;SDS011;8365;51.030;4.696;2022-10-26T10:35:34;5.00;;;2.20;;
16504;SDS011;8365;51.030;4.696;2022-10-26T10:38:10;3.35;;;1.90;;
16504;SDS011;8365;51.030;4.696;2022-10-26T10:40:49;5.88;;;2.50;;
16504;SDS011;8365;51.030;4.696;2022-10-26T10:43:22;5.38;;;2.20;;
16504;SDS011;8365;51.030;4.696;2022-10-26T10:45:54;5.20;;;2.10;;
16504;SDS011;8365;51.030;4.696;2022-10-26T10:48:27;4.50;;;2.13;;
16504;SDS011;8365;51.030;4.696;2022-10-26T10:50:59;4.32;;;2.00;;
16504;SDS011;8365;51.030;4.696;2022-10-26T10:53:37;4.47;;;2.10;;
16504;SDS011;8365;51.030;4.696;2022-10-26T11:07:35;5.60;;;2.17;;
16504;SDS011;8365;51.030;4.696;2022-10-26T11:10:14;3.95;;;1.88;;
16504;SDS011;8365;51.030;4.696;2022-10-26T11:12:52;3.75;;;1.80;;
16504;SDS011;8365;51.030;4.696;2022-10-26T11:15:35;3.45;;;1.80;;
16504;SDS011;8365;51.030;4.696;2022-10-26T11:20:55;2.58;;;1.88;;
16504;SDS011;8365;51.030;4.696;2022-10-26T11:23:37;3.55;;;1.80;;
16504;SDS011;8365;51.030;4.696;2022-10-26T11:26:16;2.60;;;1.90;;
16504;SDS011;8365;51.030;4.696;2022-10-26T11:29:00;5.90;;;1.88;;
16504;SDS011;8365;51.030;4.696;2022-10-26T11:31:40;5.53;;;1.60;;
16504;SDS011;8365;51.030;4.696;2022-10-26T11:34:28;3.85;;;2.10;;
16504;SDS011;8365;51.030;4.696;2022-10-26T11:37:15;5.32;;;2.00;;
16504;SDS011;8365;51.030;4.696;2022-10-26T11:43:02;2.38;;;1.75;;
16504;SDS011;8365;51.030;4.696;2022-10-26T11:45:42;4.38;;;1.85;;
16504;SDS011;8365;51.030;4.696;2022-10-26T11:48:16;2.75;;;1.92;;
16504;SDS011;8365;51.030;4.696;2022-10-26T11:50:54;3.35;;;1.88;;
16504;SDS011;8365;51.030;4.696;2022-10-26T11:53:28;3.70;;;2.17;;
16504;SDS011;8365;51.030;4.696;2022-10-26T11:56:09;5.05;;;2.00;;
16504;SDS011;8365;51.030;4.696;2022-10-26T11:58:44;4.88;;;1.90;;
16504;SDS011;8365;51.030;4.696;2022-10-26T12:01:14;3.55;;;1.83;;
16504;SDS011;8365;51.030;4.696;2022-10-26T12:03:47;3.45;;;1.90;;
16504;SDS011;8365;51.030;4.696;2022-10-26T12:06:21;3.70;;;1.90;;
16504;SDS011;8365;51.030;4.696;2022-10-26T12:09:06;3.42;;;2.08;;
16504;SDS011;8365;51.030;4.696;2022-10-26T12:14:22;3.03;;;1.90;;
16504;SDS011;8365;51.030;4.696;2022-10-26T12:22:48;2.70;;;1.88;;
16504;SDS011;8365;51.030;4.696;2022-10-26T12:25:20;4.68;;;1.77;;
16504;SDS011;8365;51.030;4.696;2022-10-26T12:27:52;3.53;;;1.63;;
16504;SDS011;8365;51.030;4.696;2022-10-26T12:32:58;4.15;;;2.10;;
16504;SDS011;8365;51.030;4.696;2022-10-26T12:35:42;3.45;;;2.17;;
16504;SDS011;8365;51.030;4.696;2022-10-26T12:43:34;4.43;;;1.90;;
16504;SDS011;8365;51.030;4.696;2022-10-26T12:48:45;3.85;;;2.13;;
16504;SDS011;8365;51.030;4.696;2022-10-26T12:54:01;2.28;;;1.85;;
16504;SDS011;8365;51.030;4.696;2022-10-26T12:56:50;4.38;;;2.10;;
16504;SDS011;8365;51.030;4.696;2022-10-26T12:59:39;4.20;;;1.95;;
16504;SDS011;8365;51.030;4.696;2022-10-26T13:05:47;4.90;;;1.88;;
16504;SDS011;8365;51.030;4.696;2022-10-26T13:08:48;3.90;;;1.80;;
16504;SDS011;8365;51.030;4.696;2022-10-26T13:14:01;3.97;;;1.75;;
16504;SDS011;8365;51.030;4.696;2022-10-26T13:16:34;3.08;;;2.00;;
16504;SDS011;8365;51.030;4.696;2022-10-26T13:19:05;3.53;;;1.73;;
16504;SDS011;8365;51.030;4.696;2022-10-26T13:21:58;2.60;;;1.85;;
16504;SDS011;8365;51.030;4.696;2022-10-26T13:24:30;4.18;;;1.98;;
16504;SDS011;8365;51.030;4.696;2022-10-26T13:32:34;4.07;;;2.00;;
16504;SDS011;8365;51.030;4.696;2022-10-26T13:35:11;4.80;;;1.85;;
16504;SDS011;8365;51.030;4.696;2022-10-26T13:37:46;3.92;;;1.77;;
16504;SDS011;8365;51.030;4.696;2022-10-26T13:40:19;3.45;;;1.67;;
16504;SDS011;8365;51.030;4.696;2022-10-26T13:42:56;2.50;;;1.67;;
16504;SDS011;8365;51.030;4.696;2022-10-26T13:45:41;5.35;;;1.73;;
16504;SDS011;8365;51.030;4.696;2022-10-26T13:50:56;3.33;;;1.77;;
16504;SDS011;8365;51.030;4.696;2022-10-26T13:56:36;3.20;;;1.70;;
16504;SDS011;8365;51.030;4.696;2022-10-26T13:59:13;2.55;;;1.60;;
16504;SDS011;8365;51.030;4.696;2022-10-26T14:01:44;4.85;;;1.85;;
16504;SDS011;8365;51.030;4.696;2022-10-26T14:04:25;2.92;;;1.75;;
16504;SDS011;8365;51.030;4.696;2022-10-26T14:06:56;5.47;;;2.13;;
16504;SDS011;8365;51.030;4.696;2022-10-26T14:09:26;3.13;;;1.85;;
16504;SDS011;8365;51.030;4.696;2022-10-26T14:11:58;3.55;;;2.10;;
16504;SDS011;8365;51.030;4.696;2022-10-26T14:14:31;3.42;;;2.00;;
16504;SDS011;8365;51.030;4.696;2022-10-26T14:17:05;2.03;;;1.83;;
16504;SDS011;8365;51.030;4.696;2022-10-26T14:19:36;2.70;;;1.50;;
16504;SDS011;8365;51.030;4.696;2022-10-26T14:22:15;4.05;;;2.58;;
16504;SDS011;8365;51.030;4.696;2022-10-26T14:24:52;4.38;;;2.00;;
16504;SDS011;8365;51.030;4.696;2022-10-26T14:27:32;4.40;;;2.22;;
16504;SDS011;8365;51.030;4.696;2022-10-26T14:30:29;5.88;;;1.95;;
16504;SDS011;8365;51.030;4.696;2022-10-26T14:33:00;7.57;;;1.92;;
16504;SDS011;8365;51.030;4.696;2022-10-26T14:35:47;3.13;;;1.80;;
16504;SDS011;8365;51.030;4.696;2022-10-26T14:38:19;2.40;;;1.60;;
16504;SDS011;8365;51.030;4.696;2022-10-26T14:40:55;3.42;;;1.80;;
16504;SDS011;8365;51.030;4.696;2022-10-26T14:43:26;3.97;;;1.67;;
16504;SDS011;8365;51.030;4.696;2022-10-26T14:45:57;3.80;;;1.80;;
16504;SDS011;8365;51.030;4.696;2022-10-26T14:48:31;5.70;;;2.00;;
16504;SDS011;8365;51.030;4.696;2022-10-26T14:51:16;4.43;;;2.03;;
16504;SDS011;8365;51.030;4.696;2022-10-26T14:53:51;2.85;;;1.70;;
16504;SDS011;8365;51.030;4.696;2022-10-26T14:56:27;3.40;;;1.65;;
16504;SDS011;8365;51.030;4.696;2022-10-26T14:59:11;6.28;;;1.95;;
16504;SDS011;8365;51.030;4.696;2022-10-26T15:07:16;3.15;;;1.67;;
16504;SDS011;8365;51.030;4.696;2022-10-26T15:09:48;4.70;;;2.00;;
16504;SDS011;8365;51.030;4.696;2022-10-26T15:12:32;2.15;;;1.83;;
16504;SDS011;8365;51.030;4.696;2022-10-26T15:17:53;3.72;;;1.85;;
16504;SDS011;8365;51.030;4.696;2022-10-26T15:20:27;4.93;;;2.30;;
16504;SDS011;8365;51.030;4.696;2022-10-26T15:22:59;4.07;;;1.88;;
16504;SDS011;8365;51.030;4.696;2022-10-26T15:25:32;3.92;;;1.80;;
16504;SDS011;8365;51.030;4.696;2022-10-26T15:28:37;5.88;;;2.00;;
16504;SDS011;8365;51.030;4.696;2022-10-26T15:34:27;5.15;;;2.00;;
16504;SDS011;8365;51.030;4.696;2022-10-26T15:36:32;2.10;;;1.90;;
16504;SDS011;8365;51.030;4.696;2022-10-26T15:39:04;2.22;;;1.70;;
16504;SDS011;8365;51.030;4.696;2022-10-26T15:41:35;3.50;;;2.00;;
16504;SDS011;8365;51.030;4.696;2022-10-26T15:44:10;5.38;;;2.00;;
16504;SDS011;8365;51.030;4.696;2022-10-26T15:46:45;4.85;;;1.90;;
16504;SDS011;8365;51.030;4.696;2022-10-26T15:49:16;5.00;;;2.08;;
16504;SDS011;8365;51.030;4.696;2022-10-26T15:51:48;2.70;;;1.88;;
16504;SDS011;8365;51.030;4.696;2022-10-26T15:54:18;2.58;;;1.65;;
16504;SDS011;8365;51.030;4.696;2022-10-26T15:56:49;4.15;;;1.90;;
16504;SDS011;8365;51.030;4.696;2022-10-26T15:59:19;3.75;;;2.00;;
16504;SDS011;8365;51.030;4.696;2022-10-26T16:01:50;5.13;;;2.15;;
16504;SDS011;8365;51.030;4.696;2022-10-26T16:04:21;6.65;;;2.17;;
16504;SDS011;8365;51.030;4.696;2022-10-26T16:06:52;4.20;;;1.85;;
16504;SDS011;8365;51.030;4.696;2022-10-26T16:09:22;3.80;;;2.33;;
16504;SDS011;8365;51.030;4.696;2022-10-26T16:11:53;3.25;;;1.92;;
16504;SDS011;8365;51.030;4.696;2022-10-26T16:14:23;3.70;;;2.00;;
16504;SDS011;8365;51.030;4.696;2022-10-26T16:16:53;4.43;;;2.25;;
16504;SDS011;8365;51.030;4.696;2022-10-26T16:19:24;6.93;;;2.25;;
16504;SDS011;8365;51.030;4.696;2022-10-26T16:21:54;3.03;;;1.90;;
16504;SDS011;8365;51.030;4.696;2022-10-26T16:24:25;6.72;;;2.42;;
16504;SDS011;8365;51.030;4.696;2022-10-26T16:26:57;5.90;;;2.30;;
16504;SDS011;8365;51.030;4.696;2022-10-26T16:29:28;6.78;;;3.03;;
16504;SDS011;8365;51.030;4.696;2022-10-26T16:32:01;3.70;;;2.30;;
16504;SDS011;8365;51.030;4.696;2022-10-26T16:34:32;4.45;;;2.65;;
16504;SDS011;8365;51.030;4.696;2022-10-26T16:37:02;5.78;;;2.40;;
16504;SDS011;8365;51.030;4.696;2022-10-26T16:39:32;4.90;;;2.47;;
16504;SDS011;8365;51.030;4.696;2022-10-26T16:42:03;7.20;;;2.72;;
16504;SDS011;8365;51.030;4.696;2022-10-26T16:44:35;6.32;;;2.50;;
16504;SDS011;8365;51.030;4.696;2022-10-26T16:47:06;3.72;;;2.08;;
16504;SDS011;8365;51.030;4.696;2022-10-26T16:49:39;5.32;;;2.80;;
16504;SDS011;8365;51.030;4.696;2022-10-26T16:52:13;6.22;;;2.40;;
16504;SDS011;8365;51.030;4.696;2022-10-26T16:54:44;6.20;;;2.40;;
16504;SDS011;8365;51.030;4.696;2022-10-26T16:57:14;4.28;;;2.47;;
16504;SDS011;8365;51.030;4.696;2022-10-26T16:59:44;5.70;;;2.45;;
16504;SDS011;8365;51.030;4.696;2022-10-26T17:02:15;4.95;;;2.53;;
16504;SDS011;8365;51.030;4.696;2022-10-26T17:04:45;5.35;;;2.78;;
16504;SDS011;8365;51.030;4.696;2022-10-26T17:07:16;5.40;;;3.13;;
16504;SDS011;8365;51.030;4.696;2022-10-26T17:09:46;5.82;;;2.97;;
16504;SDS011;8365;51.030;4.696;2022-10-26T17:12:16;4.82;;;2.60;;
16504;SDS011;8365;51.030;4.696;2022-10-26T17:14:47;5.88;;;2.95;;
16504;SDS011;8365;51.030;4.696;2022-10-26T17:17:17;7.13;;;3.00;;
16504;SDS011;8365;51.030;4.696;2022-10-26T17:19:48;3.15;;;2.60;;
16504;SDS011;8365;51.030;4.696;2022-10-26T17:22:18;5.47;;;3.08;;
16504;SDS011;8365;51.030;4.696;2022-10-26T17:24:49;3.90;;;2.65;;
16504;SDS011;8365;51.030;4.696;2022-10-26T17:27:19;6.63;;;2.60;;
16504;SDS011;8365;51.030;4.696;2022-10-26T17:29:52;4.93;;;2.75;;
16504;SDS011;8365;51.030;4.696;2022-10-26T17:32:23;5.97;;;2.85;;
16504;SDS011;8365;51.030;4.696;2022-10-26T17:34:53;5.88;;;2.97;;
16504;SDS011;8365;51.030;4.696;2022-10-26T17:37:24;4.18;;;2.95;;
16504;SDS011;8365;51.030;4.696;2022-10-26T17:39:54;7.68;;;3.38;;
16504;SDS011;8365;51.030;4.696;2022-10-26T17:42:24;5.93;;;3.17;;
16504;SDS011;8365;51.030;4.696;2022-10-26T17:44:55;5.07;;;3.00;;
16504;SDS011;8365;51.030;4.696;2022-10-26T17:47:25;5.95;;;3.63;;
16504;SDS011;8365;51.030;4.696;2022-10-26T17:49:56;4.75;;;3.35;;
16504;SDS011;8365;51.030;4.696;2022-10-26T17:52:26;3.78;;;2.85;;
16504;SDS011;8365;51.030;4.696;2022-10-26T17:54:57;6.45;;;3.40;;
16504;SDS011;8365;51.030;4.696;2022-10-26T17:57:30;6.57;;;3.20;;
16504;SDS011;8365;51.030;4.696;2022-10-26T18:00:01;6.13;;;2.97;;
16504;SDS011;8365;51.030;4.696;2022-10-26T18:02:32;6.38;;;3.42;;
16504;SDS011;8365;51.030;4.696;2022-10-26T18:05:06;7.20;;;3.28;;
16504;SDS011;8365;51.030;4.696;2022-10-26T18:07:37;5.53;;;3.50;;
16504;SDS011;8365;51.030;4.696;2022-10-26T18:10:07;5.30;;;3.30;;
16504;SDS011;8365;51.030;4.696;2022-10-26T18:12:38;5.68;;;3.47;;